sensor_id;sensor_type;location;lat;lon;timestamp;P1;durP1;ratioP1;P2;durP2;ratioP2
4963;SDS011;2497;47.410;9.740;2023-01-19T00:00:51;8.13;;;4.18;;
4963;SDS011;2497;47.410;9.740;2023-01-19T00:03:18;8.77;;;4.20;;
4963;SDS011;2497;47.410;9.740;2023-01-19T00:05:45;9.57;;;4.57;;
4963;SDS011;2497;47.410;9.740;2023-01-19T00:08:12;8.20;;;4.22;;
4963;SDS011;2497;47.410;9.740;2023-01-19T00:10:40;12.95;;;4.07;;
4963;SDS011;2497;47.410;9.740;2023-01-19T00:13:09;7.70;;;4.50;;
4963;SDS011;2497;47.410;9.740;2023-01-19T00:15:36;9.80;;;4.70;;
4963;SDS011;2497;47.410;9.740;2023-01-19T00:18:03;7.40;;;4.35;;
4963;SDS011;2497;47.410;9.740;2023-01-19T00:20:31;8.02;;;4.15;;
4963;SDS011;2497;47.410;9.740;2023-01-19T00:23:15;9.25;;;4.80;;
4963;SDS011;2497;47.410;9.740;2023-01-19T00:26:29;24.73;;;9.02;;
4963;SDS011;2497;47.410;9.740;2023-01-19T00:29:05;10.47;;;5.10;;
4963;SDS011;2497;47.410;9.740;2023-01-19T00:31:33;7.93;;;4.80;;
4963;SDS011;2497;47.410;9.740;2023-01-19T00:34:00;6.85;;;3.83;;
4963;SDS011;2497;47.410;9.740;2023-01-19T00:36:27;12.77;;;5.65;;
4963;SDS011;2497;47.410;9.740;2023-01-19T00:38:58;9.70;;;4.45;;
4963;SDS011;2497;47.410;9.740;2023-01-19T00:42:18;10.00;;;4.55;;
4963;SDS011;2497;47.410;9.740;2023-01-19T00:45:06;6.65;;;3.50;;
4963;SDS011;2497;47.410;9.740;2023-01-19T00:47:34;6.63;;;3.40;;
4963;SDS011;2497;47.410;9.740;2023-01-19T00:50:03;8.75;;;4.43;;
4963;SDS011;2497;47.410;9.740;2023-01-19T00:52:31;8.10;;;3.93;;
4963;SDS011;2497;47.410;9.740;2023-01-19T00:54:58;10.10;;;4.28;;
4963;SDS011;2497;47.410;9.740;2023-01-19T00:57:27;9.80;;;4.57;;
4963;SDS011;2497;47.410;9.740;2023-01-19T00:59:54;11.00;;;4.53;;
4963;SDS011;2497;47.410;9.740;2023-01-19T01:02:22;8.20;;;4.20;;
4963;SDS011;2497;47.410;9.740;2023-01-19T01:04:49;8.68;;;4.20;;
4963;SDS011;2497;47.410;9.740;2023-01-19T01:07:21;10.98;;;4.38;;
4963;SDS011;2497;47.410;9.740;2023-01-19T01:09:48;10.27;;;4.75;;
4963;SDS011;2497;47.410;9.740;2023-01-19T01:12:15;7.18;;;4.53;;
4963;SDS011;2497;47.410;9.740;2023-01-19T01:14:44;21.75;;;7.82;;
4963;SDS011;2497;47.410;9.740;2023-01-19T01:17:11;9.48;;;4.35;;
4963;SDS011;2497;47.410;9.740;2023-01-19T01:19:38;4.40;;;3.55;;
4963;SDS011;2497;47.410;9.740;2023-01-19T01:22:06;9.88;;;4.30;;
4963;SDS011;2497;47.410;9.740;2023-01-19T01:24:34;12.68;;;5.00;;
4963;SDS011;2497;47.410;9.740;2023-01-19T01:27:02;10.68;;;3.88;;
4963;SDS011;2497;47.410;9.740;2023-01-19T01:29:29;7.95;;;4.03;;
4963;SDS011;2497;47.410;9.740;2023-01-19T01:32:01;5.43;;;3.38;;
4963;SDS011;2497;47.410;9.740;2023-01-19T01:34:28;15.23;;;4.28;;
4963;SDS011;2497;47.410;9.740;2023-01-19T01:36:55;12.25;;;4.30;;
4963;SDS011;2497;47.410;9.740;2023-01-19T01:39:22;8.00;;;4.32;;
4963;SDS011;2497;47.410;9.740;2023-01-19T01:41:49;11.15;;;4.60;;
4963;SDS011;2497;47.410;9.740;2023-01-19T01:47:16;11.40;;;5.40;;
4963;SDS011;2497;47.410;9.740;2023-01-19T01:49:49;6.93;;;4.18;;
4963;SDS011;2497;47.410;9.740;2023-01-19T01:52:19;9.25;;;3.83;;
4963;SDS011;2497;47.410;9.740;2023-01-19T01:54:48;8.50;;;4.18;;
4963;SDS011;2497;47.410;9.740;2023-01-19T01:57:17;12.05;;;4.78;;
4963;SDS011;2497;47.410;9.740;2023-01-19T01:59:45;7.65;;;4.60;;
4963;SDS011;2497;47.410;9.740;2023-01-19T02:02:16;8.65;;;4.13;;
4963;SDS011;2497;47.410;9.740;2023-01-19T02:05:04;5.75;;;3.58;;
4963;SDS011;2497;47.410;9.740;2023-01-19T02:07:37;12.88;;;4.60;;
4963;SDS011;2497;47.410;9.740;2023-01-19T02:10:28;6.78;;;3.75;;
4963;SDS011;2497;47.410;9.740;2023-01-19T02:13:13;17.43;;;5.30;;
4963;SDS011;2497;47.410;9.740;2023-01-19T02:15:44;5.93;;;3.95;;
4963;SDS011;2497;47.410;9.740;2023-01-19T02:18:14;7.07;;;4.05;;
4963;SDS011;2497;47.410;9.740;2023-01-19T02:20:42;12.38;;;4.88;;
4963;SDS011;2497;47.410;9.740;2023-01-19T02:23:16;8.52;;;4.40;;
4963;SDS011;2497;47.410;9.740;2023-01-19T02:25:51;7.55;;;3.67;;
4963;SDS011;2497;47.410;9.740;2023-01-19T02:28:19;13.55;;;5.07;;
4963;SDS011;2497;47.410;9.740;2023-01-19T02:30:46;10.15;;;4.70;;
4963;SDS011;2497;47.410;9.740;2023-01-19T02:33:13;7.73;;;4.30;;
4963;SDS011;2497;47.410;9.740;2023-01-19T02:35:40;7.38;;;4.65;;
4963;SDS011;2497;47.410;9.740;2023-01-19T02:38:09;13.63;;;4.82;;
4963;SDS011;2497;47.410;9.740;2023-01-19T02:40:37;13.73;;;5.88;;
4963;SDS011;2497;47.410;9.740;2023-01-19T02:43:09;10.40;;;4.85;;
4963;SDS011;2497;47.410;9.740;2023-01-19T02:45:36;7.40;;;4.35;;
4963;SDS011;2497;47.410;9.740;2023-01-19T02:48:05;9.25;;;4.50;;
4963;SDS011;2497;47.410;9.740;2023-01-19T02:50:37;8.82;;;5.00;;
4963;SDS011;2497;47.410;9.740;2023-01-19T02:59:03;21.02;;;5.00;;
4963;SDS011;2497;47.410;9.740;2023-01-19T03:01:36;10.00;;;5.20;;
4963;SDS011;2497;47.410;9.740;2023-01-19T03:04:12;8.05;;;5.35;;
4963;SDS011;2497;47.410;9.740;2023-01-19T03:06:50;11.75;;;4.90;;
4963;SDS011;2497;47.410;9.740;2023-01-19T03:09:26;7.00;;;4.95;;
4963;SDS011;2497;47.410;9.740;2023-01-19T03:11:59;10.20;;;5.53;;
4963;SDS011;2497;47.410;9.740;2023-01-19T03:14:31;13.07;;;6.55;;
4963;SDS011;2497;47.410;9.740;2023-01-19T03:17:02;15.98;;;5.97;;
4963;SDS011;2497;47.410;9.740;2023-01-19T03:19:33;9.40;;;5.20;;
4963;SDS011;2497;47.410;9.740;2023-01-19T03:22:04;10.10;;;4.95;;
4963;SDS011;2497;47.410;9.740;2023-01-19T03:24:36;12.32;;;5.75;;
4963;SDS011;2497;47.410;9.740;2023-01-19T03:27:08;19.60;;;9.07;;
4963;SDS011;2497;47.410;9.740;2023-01-19T03:29:40;35.70;;;13.02;;
4963;SDS011;2497;47.410;9.740;2023-01-19T03:32:13;25.15;;;11.65;;
4963;SDS011;2497;47.410;9.740;2023-01-19T03:34:43;15.05;;;6.95;;
4963;SDS011;2497;47.410;9.740;2023-01-19T03:37:12;10.65;;;5.50;;
4963;SDS011;2497;47.410;9.740;2023-01-19T03:39:41;10.68;;;5.18;;
4963;SDS011;2497;47.410;9.740;2023-01-19T03:42:09;12.13;;;5.90;;
4963;SDS011;2497;47.410;9.740;2023-01-19T03:44:41;9.05;;;5.40;;
4963;SDS011;2497;47.410;9.740;2023-01-19T03:47:10;8.05;;;5.38;;
4963;SDS011;2497;47.410;9.740;2023-01-19T03:49:40;11.60;;;5.30;;
4963;SDS011;2497;47.410;9.740;2023-01-19T03:52:10;11.05;;;5.40;;
4963;SDS011;2497;47.410;9.740;2023-01-19T03:54:38;7.65;;;4.10;;
4963;SDS011;2497;47.410;9.740;2023-01-19T03:57:06;10.93;;;5.28;;
4963;SDS011;2497;47.410;9.740;2023-01-19T03:59:34;11.13;;;5.43;;
4963;SDS011;2497;47.410;9.740;2023-01-19T04:02:02;9.82;;;5.03;;
4963;SDS011;2497;47.410;9.740;2023-01-19T04:04:30;10.88;;;4.80;;
4963;SDS011;2497;47.410;9.740;2023-01-19T04:06:57;9.38;;;5.13;;
4963;SDS011;2497;47.410;9.740;2023-01-19T04:09:25;16.85;;;5.47;;
4963;SDS011;2497;47.410;9.740;2023-01-19T04:11:52;12.93;;;6.10;;
4963;SDS011;2497;47.410;9.740;2023-01-19T04:14:20;13.50;;;5.72;;
4963;SDS011;2497;47.410;9.740;2023-01-19T04:16:47;11.57;;;5.82;;
4963;SDS011;2497;47.410;9.740;2023-01-19T04:19:15;11.00;;;6.00;;
4963;SDS011;2497;47.410;9.740;2023-01-19T04:21:42;10.68;;;6.03;;
4963;SDS011;2497;47.410;9.740;2023-01-19T04:24:09;14.90;;;7.35;;
4963;SDS011;2497;47.410;9.740;2023-01-19T04:26:37;13.95;;;6.22;;
4963;SDS011;2497;47.410;9.740;2023-01-19T04:29:05;14.20;;;7.35;;
4963;SDS011;2497;47.410;9.740;2023-01-19T04:31:32;13.60;;;6.47;;
4963;SDS011;2497;47.410;9.740;2023-01-19T04:34:01;10.45;;;6.10;;
4963;SDS011;2497;47.410;9.740;2023-01-19T04:36:29;18.40;;;7.75;;
4963;SDS011;2497;47.410;9.740;2023-01-19T04:38:56;10.77;;;7.03;;
4963;SDS011;2497;47.410;9.740;2023-01-19T04:41:24;14.18;;;7.15;;
4963;SDS011;2497;47.410;9.740;2023-01-19T04:43:51;12.18;;;7.20;;
4963;SDS011;2497;47.410;9.740;2023-01-19T04:46:18;13.88;;;6.93;;
4963;SDS011;2497;47.410;9.740;2023-01-19T04:48:45;16.70;;;7.47;;
4963;SDS011;2497;47.410;9.740;2023-01-19T04:51:12;25.23;;;7.13;;
4963;SDS011;2497;47.410;9.740;2023-01-19T04:53:41;19.17;;;7.78;;
4963;SDS011;2497;47.410;9.740;2023-01-19T04:56:08;20.58;;;8.77;;
4963;SDS011;2497;47.410;9.740;2023-01-19T04:58:35;22.08;;;9.75;;
4963;SDS011;2497;47.410;9.740;2023-01-19T05:01:05;20.35;;;8.48;;
4963;SDS011;2497;47.410;9.740;2023-01-19T05:03:33;19.27;;;8.35;;
4963;SDS011;2497;47.410;9.740;2023-01-19T05:06:00;16.50;;;8.05;;
4963;SDS011;2497;47.410;9.740;2023-01-19T05:08:27;20.08;;;9.15;;
4963;SDS011;2497;47.410;9.740;2023-01-19T05:10:56;22.02;;;9.20;;
4963;SDS011;2497;47.410;9.740;2023-01-19T05:13:24;16.15;;;7.80;;
4963;SDS011;2497;47.410;9.740;2023-01-19T05:15:51;19.48;;;8.07;;
4963;SDS011;2497;47.410;9.740;2023-01-19T05:18:18;16.50;;;8.55;;
4963;SDS011;2497;47.410;9.740;2023-01-19T05:20:45;22.70;;;9.13;;
4963;SDS011;2497;47.410;9.740;2023-01-19T05:23:12;18.55;;;8.68;;
4963;SDS011;2497;47.410;9.740;2023-01-19T05:25:40;15.30;;;8.65;;
4963;SDS011;2497;47.410;9.740;2023-01-19T05:28:10;20.07;;;8.33;;
4963;SDS011;2497;47.410;9.740;2023-01-19T05:30:37;18.73;;;8.25;;
4963;SDS011;2497;47.410;9.740;2023-01-19T05:33:04;14.52;;;6.88;;
4963;SDS011;2497;47.410;9.740;2023-01-19T05:35:31;18.25;;;7.97;;
4963;SDS011;2497;47.410;9.740;2023-01-19T05:38:01;16.85;;;7.63;;
4963;SDS011;2497;47.410;9.740;2023-01-19T05:40:28;16.00;;;6.95;;
4963;SDS011;2497;47.410;9.740;2023-01-19T05:42:58;17.27;;;6.45;;
4963;SDS011;2497;47.410;9.740;2023-01-19T05:45:26;18.23;;;8.10;;
4963;SDS011;2497;47.410;9.740;2023-01-19T05:47:54;16.05;;;8.90;;
4963;SDS011;2497;47.410;9.740;2023-01-19T05:50:21;23.63;;;8.90;;
4963;SDS011;2497;47.410;9.740;2023-01-19T05:52:48;18.50;;;7.68;;
4963;SDS011;2497;47.410;9.740;2023-01-19T05:55:17;21.85;;;10.63;;
4963;SDS011;2497;47.410;9.740;2023-01-19T05:57:44;21.25;;;10.80;;
4963;SDS011;2497;47.410;9.740;2023-01-19T06:00:12;16.20;;;9.27;;
4963;SDS011;2497;47.410;9.740;2023-01-19T06:02:41;22.88;;;9.20;;
4963;SDS011;2497;47.410;9.740;2023-01-19T06:05:09;26.20;;;10.85;;
4963;SDS011;2497;47.410;9.740;2023-01-19T06:07:36;33.78;;;12.93;;
4963;SDS011;2497;47.410;9.740;2023-01-19T06:10:03;28.98;;;11.35;;
4963;SDS011;2497;47.410;9.740;2023-01-19T06:12:31;19.30;;;9.45;;
4963;SDS011;2497;47.410;9.740;2023-01-19T06:14:58;21.25;;;9.13;;
4963;SDS011;2497;47.410;9.740;2023-01-19T06:17:25;15.68;;;7.15;;
4963;SDS011;2497;47.410;9.740;2023-01-19T06:19:54;20.00;;;9.18;;
4963;SDS011;2497;47.410;9.740;2023-01-19T06:22:21;42.95;;;19.95;;
4963;SDS011;2497;47.410;9.740;2023-01-19T06:24:48;26.75;;;12.82;;
4963;SDS011;2497;47.410;9.740;2023-01-19T06:27:16;19.75;;;11.77;;
4963;SDS011;2497;47.410;9.740;2023-01-19T06:29:43;29.73;;;14.68;;
4963;SDS011;2497;47.410;9.740;2023-01-19T06:32:10;29.70;;;12.60;;
4963;SDS011;2497;47.410;9.740;2023-01-19T06:34:37;25.88;;;10.82;;
4963;SDS011;2497;47.410;9.740;2023-01-19T06:37:09;25.17;;;9.35;;
4963;SDS011;2497;47.410;9.740;2023-01-19T06:39:36;20.08;;;8.95;;
4963;SDS011;2497;47.410;9.740;2023-01-19T06:42:05;20.42;;;8.57;;
4963;SDS011;2497;47.410;9.740;2023-01-19T06:44:32;18.45;;;7.57;;
4963;SDS011;2497;47.410;9.740;2023-01-19T06:46:59;12.80;;;6.85;;
4963;SDS011;2497;47.410;9.740;2023-01-19T06:49:26;18.27;;;8.18;;
4963;SDS011;2497;47.410;9.740;2023-01-19T06:51:53;12.40;;;5.97;;
4963;SDS011;2497;47.410;9.740;2023-01-19T06:54:22;22.88;;;7.75;;
4963;SDS011;2497;47.410;9.740;2023-01-19T06:56:49;13.35;;;7.30;;
4963;SDS011;2497;47.410;9.740;2023-01-19T06:59:16;11.40;;;5.90;;
4963;SDS011;2497;47.410;9.740;2023-01-19T07:01:43;14.18;;;6.07;;
4963;SDS011;2497;47.410;9.740;2023-01-19T07:04:11;21.67;;;5.43;;
4963;SDS011;2497;47.410;9.740;2023-01-19T07:06:39;17.02;;;7.28;;
4963;SDS011;2497;47.410;9.740;2023-01-19T07:09:07;19.13;;;6.75;;
4963;SDS011;2497;47.410;9.740;2023-01-19T07:11:37;19.10;;;6.32;;
4963;SDS011;2497;47.410;9.740;2023-01-19T07:14:04;14.07;;;6.40;;
4963;SDS011;2497;47.410;9.740;2023-01-19T07:16:32;27.85;;;6.63;;
4963;SDS011;2497;47.410;9.740;2023-01-19T07:18:59;15.50;;;6.20;;
4963;SDS011;2497;47.410;9.740;2023-01-19T07:21:26;14.48;;;7.15;;
4963;SDS011;2497;47.410;9.740;2023-01-19T07:23:53;16.38;;;7.05;;
4963;SDS011;2497;47.410;9.740;2023-01-19T07:26:20;9.98;;;5.68;;
4963;SDS011;2497;47.410;9.740;2023-01-19T07:28:50;18.33;;;6.40;;
4963;SDS011;2497;47.410;9.740;2023-01-19T07:31:18;18.35;;;6.20;;
4963;SDS011;2497;47.410;9.740;2023-01-19T07:33:45;16.75;;;6.00;;
4963;SDS011;2497;47.410;9.740;2023-01-19T07:36:12;16.00;;;6.05;;
4963;SDS011;2497;47.410;9.740;2023-01-19T07:38:40;15.35;;;5.60;;
4963;SDS011;2497;47.410;9.740;2023-01-19T07:41:08;8.73;;;4.63;;
4963;SDS011;2497;47.410;9.740;2023-01-19T07:43:35;14.70;;;6.20;;
4963;SDS011;2497;47.410;9.740;2023-01-19T07:46:05;10.02;;;4.60;;
4963;SDS011;2497;47.410;9.740;2023-01-19T07:48:32;13.52;;;5.88;;
4963;SDS011;2497;47.410;9.740;2023-01-19T07:50:59;10.55;;;6.80;;
4963;SDS011;2497;47.410;9.740;2023-01-19T07:53:29;14.45;;;5.72;;
4963;SDS011;2497;47.410;9.740;2023-01-19T07:55:56;14.75;;;6.53;;
4963;SDS011;2497;47.410;9.740;2023-01-19T07:58:24;10.98;;;5.28;;
4963;SDS011;2497;47.410;9.740;2023-01-19T08:00:51;11.88;;;5.65;;
4963;SDS011;2497;47.410;9.740;2023-01-19T08:03:20;11.32;;;5.18;;
4963;SDS011;2497;47.410;9.740;2023-01-19T08:05:51;16.58;;;5.22;;
4963;SDS011;2497;47.410;9.740;2023-01-19T08:08:19;13.15;;;5.80;;
4963;SDS011;2497;47.410;9.740;2023-01-19T08:10:48;14.68;;;6.45;;
4963;SDS011;2497;47.410;9.740;2023-01-19T08:13:15;18.00;;;6.13;;
4963;SDS011;2497;47.410;9.740;2023-01-19T08:15:43;14.40;;;6.13;;
4963;SDS011;2497;47.410;9.740;2023-01-19T08:18:10;13.05;;;6.13;;
4963;SDS011;2497;47.410;9.740;2023-01-19T08:20:41;11.02;;;5.38;;
4963;SDS011;2497;47.410;9.740;2023-01-19T08:23:08;9.98;;;6.00;;
4963;SDS011;2497;47.410;9.740;2023-01-19T08:25:36;8.00;;;5.05;;
4963;SDS011;2497;47.410;9.740;2023-01-19T08:28:06;10.23;;;5.45;;
4963;SDS011;2497;47.410;9.740;2023-01-19T08:30:34;10.75;;;6.30;;
4963;SDS011;2497;47.410;9.740;2023-01-19T08:33:02;11.68;;;5.60;;
4963;SDS011;2497;47.410;9.740;2023-01-19T08:35:32;11.30;;;4.88;;
4963;SDS011;2497;47.410;9.740;2023-01-19T08:38:03;9.70;;;4.53;;
4963;SDS011;2497;47.410;9.740;2023-01-19T08:40:32;15.80;;;5.97;;
4963;SDS011;2497;47.410;9.740;2023-01-19T08:43:00;11.63;;;5.68;;
4963;SDS011;2497;47.410;9.740;2023-01-19T08:45:32;13.90;;;5.55;;
4963;SDS011;2497;47.410;9.740;2023-01-19T08:47:59;13.38;;;6.35;;
4963;SDS011;2497;47.410;9.740;2023-01-19T08:50:27;12.80;;;6.53;;
4963;SDS011;2497;47.410;9.740;2023-01-19T08:52:56;15.60;;;5.43;;
4963;SDS011;2497;47.410;9.740;2023-01-19T08:55:25;11.52;;;6.00;;
4963;SDS011;2497;47.410;9.740;2023-01-19T08:57:53;9.68;;;5.40;;
4963;SDS011;2497;47.410;9.740;2023-01-19T09:00:23;10.18;;;5.57;;
4963;SDS011;2497;47.410;9.740;2023-01-19T09:02:52;12.38;;;4.85;;
4963;SDS011;2497;47.410;9.740;2023-01-19T09:05:20;8.35;;;5.40;;
4963;SDS011;2497;47.410;9.740;2023-01-19T09:07:47;10.20;;;5.05;;
4963;SDS011;2497;47.410;9.740;2023-01-19T09:10:16;11.63;;;5.57;;
4963;SDS011;2497;47.410;9.740;2023-01-19T09:12:45;12.20;;;5.55;;
4963;SDS011;2497;47.410;9.740;2023-01-19T09:15:12;11.90;;;6.00;;
4963;SDS011;2497;47.410;9.740;2023-01-19T09:17:39;7.55;;;5.18;;
4963;SDS011;2497;47.410;9.740;2023-01-19T09:20:07;11.38;;;5.80;;
4963;SDS011;2497;47.410;9.740;2023-01-19T09:22:35;15.60;;;6.10;;
4963;SDS011;2497;47.410;9.740;2023-01-19T09:25:04;9.15;;;5.53;;
4963;SDS011;2497;47.410;9.740;2023-01-19T09:27:31;14.45;;;6.50;;
4963;SDS011;2497;47.410;9.740;2023-01-19T09:30:00;9.88;;;5.68;;
4963;SDS011;2497;47.410;9.740;2023-01-19T09:32:27;8.90;;;5.47;;
4963;SDS011;2497;47.410;9.740;2023-01-19T09:34:54;12.52;;;5.60;;
4963;SDS011;2497;47.410;9.740;2023-01-19T09:37:22;19.48;;;5.38;;
4963;SDS011;2497;47.410;9.740;2023-01-19T09:39:49;14.32;;;5.50;;
4963;SDS011;2497;47.410;9.740;2023-01-19T09:42:17;9.83;;;4.77;;
4963;SDS011;2497;47.410;9.740;2023-01-19T09:44:49;18.80;;;5.63;;
4963;SDS011;2497;47.410;9.740;2023-01-19T09:47:20;12.70;;;5.15;;
4963;SDS011;2497;47.410;9.740;2023-01-19T09:49:52;10.77;;;4.93;;
4963;SDS011;2497;47.410;9.740;2023-01-19T09:52:24;12.40;;;4.90;;
4963;SDS011;2497;47.410;9.740;2023-01-19T09:54:52;10.23;;;4.30;;
4963;SDS011;2497;47.410;9.740;2023-01-19T09:57:21;8.67;;;4.40;;
4963;SDS011;2497;47.410;9.740;2023-01-19T09:59:49;7.47;;;4.22;;
4963;SDS011;2497;47.410;9.740;2023-01-19T10:02:27;15.07;;;6.50;;
4963;SDS011;2497;47.410;9.740;2023-01-19T10:05:02;14.33;;;7.77;;
4963;SDS011;2497;47.410;9.740;2023-01-19T10:07:31;26.23;;;9.13;;
4963;SDS011;2497;47.410;9.740;2023-01-19T10:10:19;17.77;;;8.00;;
4963;SDS011;2497;47.410;9.740;2023-01-19T10:15:58;20.15;;;8.32;;
4963;SDS011;2497;47.410;9.740;2023-01-19T10:18:39;17.15;;;9.10;;
4963;SDS011;2497;47.410;9.740;2023-01-19T10:21:13;35.78;;;10.95;;
4963;SDS011;2497;47.410;9.740;2023-01-19T10:23:44;33.47;;;10.73;;
4963;SDS011;2497;47.410;9.740;2023-01-19T10:26:15;29.98;;;12.30;;
4963;SDS011;2497;47.410;9.740;2023-01-19T10:28:44;35.53;;;12.82;;
4963;SDS011;2497;47.410;9.740;2023-01-19T10:31:15;25.92;;;10.38;;
4963;SDS011;2497;47.410;9.740;2023-01-19T10:33:46;29.73;;;11.97;;
4963;SDS011;2497;47.410;9.740;2023-01-19T10:36:15;16.55;;;9.75;;
4963;SDS011;2497;47.410;9.740;2023-01-19T10:38:44;25.23;;;8.32;;
4963;SDS011;2497;47.410;9.740;2023-01-19T10:41:13;13.53;;;6.87;;
4963;SDS011;2497;47.410;9.740;2023-01-19T10:43:45;16.03;;;9.23;;
4963;SDS011;2497;47.410;9.740;2023-01-19T10:46:17;18.87;;;8.40;;
4963;SDS011;2497;47.410;9.740;2023-01-19T10:48:50;19.30;;;8.20;;
4963;SDS011;2497;47.410;9.740;2023-01-19T10:51:18;16.03;;;7.40;;
4963;SDS011;2497;47.410;9.740;2023-01-19T10:53:54;19.60;;;8.57;;
4963;SDS011;2497;47.410;9.740;2023-01-19T10:56:24;16.23;;;7.10;;
4963;SDS011;2497;47.410;9.740;2023-01-19T10:58:54;18.90;;;8.20;;
4963;SDS011;2497;47.410;9.740;2023-01-19T11:01:23;11.17;;;6.27;;
4963;SDS011;2497;47.410;9.740;2023-01-19T11:03:53;9.60;;;5.00;;
4963;SDS011;2497;47.410;9.740;2023-01-19T11:06:22;15.23;;;5.53;;
4963;SDS011;2497;47.410;9.740;2023-01-19T11:08:52;9.47;;;5.20;;
4963;SDS011;2497;47.410;9.740;2023-01-19T11:11:40;12.60;;;5.50;;
4963;SDS011;2497;47.410;9.740;2023-01-19T11:14:09;8.80;;;4.37;;
4963;SDS011;2497;47.410;9.740;2023-01-19T11:16:40;9.10;;;5.30;;
4963;SDS011;2497;47.410;9.740;2023-01-19T11:19:20;7.70;;;4.57;;
4963;SDS011;2497;47.410;9.740;2023-01-19T11:22:06;11.43;;;4.73;;
4963;SDS011;2497;47.410;9.740;2023-01-19T11:24:36;8.60;;;4.40;;
4963;SDS011;2497;47.410;9.740;2023-01-19T11:27:04;6.00;;;4.20;;
4963;SDS011;2497;47.410;9.740;2023-01-19T11:29:32;7.20;;;4.67;;
4963;SDS011;2497;47.410;9.740;2023-01-19T11:32:08;9.10;;;5.27;;
4963;SDS011;2497;47.410;9.740;2023-01-19T11:34:38;10.27;;;3.57;;
4963;SDS011;2497;47.410;9.740;2023-01-19T11:37:20;13.27;;;5.13;;
4963;SDS011;2497;47.410;9.740;2023-01-19T11:39:53;6.57;;;4.27;;
4963;SDS011;2497;47.410;9.740;2023-01-19T11:42:22;11.13;;;5.20;;
4963;SDS011;2497;47.410;9.740;2023-01-19T11:44:54;7.33;;;4.60;;
4963;SDS011;2497;47.410;9.740;2023-01-19T11:47:29;11.50;;;4.23;;
4963;SDS011;2497;47.410;9.740;2023-01-19T11:50:03;8.97;;;4.33;;
4963;SDS011;2497;47.410;9.740;2023-01-19T11:52:36;8.90;;;3.30;;
4963;SDS011;2497;47.410;9.740;2023-01-19T11:55:11;7.67;;;4.30;;
4963;SDS011;2497;47.410;9.740;2023-01-19T11:57:43;7.97;;;4.23;;
4963;SDS011;2497;47.410;9.740;2023-01-19T12:00:18;6.90;;;4.00;;
4963;SDS011;2497;47.410;9.740;2023-01-19T12:02:53;7.90;;;4.23;;
4963;SDS011;2497;47.410;9.740;2023-01-19T12:05:28;8.27;;;4.20;;
4963;SDS011;2497;47.410;9.740;2023-01-19T12:07:59;10.57;;;4.40;;
4963;SDS011;2497;47.410;9.740;2023-01-19T12:10:31;8.00;;;3.80;;
4963;SDS011;2497;47.410;9.740;2023-01-19T12:13:02;6.80;;;3.47;;
4963;SDS011;2497;47.410;9.740;2023-01-19T12:15:30;5.97;;;3.60;;
4963;SDS011;2497;47.410;9.740;2023-01-19T12:18:01;11.40;;;4.20;;
4963;SDS011;2497;47.410;9.740;2023-01-19T12:20:32;6.90;;;4.03;;
4963;SDS011;2497;47.410;9.740;2023-01-19T12:23:06;10.20;;;4.07;;
4963;SDS011;2497;47.410;9.740;2023-01-19T12:25:42;6.07;;;3.57;;
4963;SDS011;2497;47.410;9.740;2023-01-19T12:28:17;4.57;;;2.57;;
4963;SDS011;2497;47.410;9.740;2023-01-19T12:30:51;6.10;;;3.50;;
4963;SDS011;2497;47.410;9.740;2023-01-19T12:33:20;6.90;;;4.17;;
4963;SDS011;2497;47.410;9.740;2023-01-19T12:36:03;7.23;;;3.57;;
4963;SDS011;2497;47.410;9.740;2023-01-19T12:38:41;7.00;;;3.17;;
4963;SDS011;2497;47.410;9.740;2023-01-19T12:41:15;6.37;;;3.23;;
4963;SDS011;2497;47.410;9.740;2023-01-19T12:46:55;8.43;;;4.23;;
4963;SDS011;2497;47.410;9.740;2023-01-19T12:49:28;4.93;;;2.80;;
4963;SDS011;2497;47.410;9.740;2023-01-19T12:52:19;6.60;;;3.10;;
4963;SDS011;2497;47.410;9.740;2023-01-19T12:55:15;5.63;;;2.77;;
4963;SDS011;2497;47.410;9.740;2023-01-19T12:57:49;5.97;;;3.40;;
4963;SDS011;2497;47.410;9.740;2023-01-19T13:00:33;4.33;;;3.00;;
4963;SDS011;2497;47.410;9.740;2023-01-19T13:03:03;3.00;;;2.70;;
4963;SDS011;2497;47.410;9.740;2023-01-19T13:05:47;4.50;;;3.20;;
4963;SDS011;2497;47.410;9.740;2023-01-19T13:08:19;4.63;;;3.90;;
4963;SDS011;2497;47.410;9.740;2023-01-19T13:17:03;8.70;;;3.40;;
4963;SDS011;2497;47.410;9.740;2023-01-19T13:25:52;5.50;;;2.60;;
4963;SDS011;2497;47.410;9.740;2023-01-19T13:28:29;12.10;;;3.70;;
4963;SDS011;2497;47.410;9.740;2023-01-19T13:31:00;8.90;;;4.10;;
4963;SDS011;2497;47.410;9.740;2023-01-19T13:33:31;6.50;;;4.10;;
4963;SDS011;2497;47.410;9.740;2023-01-19T13:36:04;10.17;;;3.80;;
4963;SDS011;2497;47.410;9.740;2023-01-19T13:38:48;6.53;;;4.20;;
4963;SDS011;2497;47.410;9.740;2023-01-19T13:41:19;7.43;;;3.40;;
4963;SDS011;2497;47.410;9.740;2023-01-19T13:43:52;6.03;;;3.60;;
4963;SDS011;2497;47.410;9.740;2023-01-19T13:46:25;18.77;;;3.73;;
4963;SDS011;2497;47.410;9.740;2023-01-19T13:48:54;5.67;;;3.33;;
4963;SDS011;2497;47.410;9.740;2023-01-19T13:51:24;9.80;;;4.63;;
4963;SDS011;2497;47.410;9.740;2023-01-19T13:53:54;7.73;;;4.43;;
4963;SDS011;2497;47.410;9.740;2023-01-19T13:56:24;11.93;;;5.00;;
4963;SDS011;2497;47.410;9.740;2023-01-19T13:58:56;11.73;;;5.30;;
4963;SDS011;2497;47.410;9.740;2023-01-19T14:01:25;16.20;;;4.63;;
4963;SDS011;2497;47.410;9.740;2023-01-19T14:03:53;10.43;;;5.30;;
4963;SDS011;2497;47.410;9.740;2023-01-19T14:06:21;10.67;;;4.33;;
4963;SDS011;2497;47.410;9.740;2023-01-19T14:09:06;9.97;;;5.27;;
4963;SDS011;2497;47.410;9.740;2023-01-19T14:11:40;8.70;;;5.03;;
4963;SDS011;2497;47.410;9.740;2023-01-19T14:14:20;9.50;;;5.20;;
4963;SDS011;2497;47.410;9.740;2023-01-19T14:16:51;9.90;;;4.43;;
4963;SDS011;2497;47.410;9.740;2023-01-19T14:19:19;9.50;;;4.03;;
4963;SDS011;2497;47.410;9.740;2023-01-19T14:21:46;10.33;;;4.60;;
4963;SDS011;2497;47.410;9.740;2023-01-19T14:24:24;9.50;;;4.73;;
4963;SDS011;2497;47.410;9.740;2023-01-19T14:27:05;9.00;;;5.10;;
4963;SDS011;2497;47.410;9.740;2023-01-19T14:29:43;7.23;;;4.47;;
4963;SDS011;2497;47.410;9.740;2023-01-19T14:32:15;6.10;;;4.40;;
4963;SDS011;2497;47.410;9.740;2023-01-19T14:34:44;13.70;;;5.00;;
4963;SDS011;2497;47.410;9.740;2023-01-19T14:37:14;11.10;;;4.73;;
4963;SDS011;2497;47.410;9.740;2023-01-19T14:39:47;20.13;;;4.93;;
4963;SDS011;2497;47.410;9.740;2023-01-19T14:42:18;8.67;;;4.77;;
4963;SDS011;2497;47.410;9.740;2023-01-19T14:44:49;15.20;;;5.80;;
4963;SDS011;2497;47.410;9.740;2023-01-19T14:47:25;15.67;;;5.50;;
4963;SDS011;2497;47.410;9.740;2023-01-19T14:49:55;11.43;;;5.53;;
4963;SDS011;2497;47.410;9.740;2023-01-19T14:52:26;10.10;;;4.13;;
4963;SDS011;2497;47.410;9.740;2023-01-19T14:54:56;8.17;;;4.30;;
4963;SDS011;2497;47.410;9.740;2023-01-19T14:57:26;12.00;;;3.80;;
4963;SDS011;2497;47.410;9.740;2023-01-19T14:59:53;7.57;;;3.80;;
4963;SDS011;2497;47.410;9.740;2023-01-19T15:02:20;4.67;;;3.60;;
4963;SDS011;2497;47.410;9.740;2023-01-19T15:04:47;9.63;;;3.97;;
4963;SDS011;2497;47.410;9.740;2023-01-19T15:07:19;8.90;;;4.33;;
4963;SDS011;2497;47.410;9.740;2023-01-19T15:09:49;6.83;;;3.20;;
4963;SDS011;2497;47.410;9.740;2023-01-19T15:12:17;11.70;;;5.60;;
4963;SDS011;2497;47.410;9.740;2023-01-19T15:14:49;9.43;;;4.67;;
4963;SDS011;2497;47.410;9.740;2023-01-19T15:17:17;9.77;;;4.93;;
4963;SDS011;2497;47.410;9.740;2023-01-19T15:19:50;8.93;;;4.37;;
4963;SDS011;2497;47.410;9.740;2023-01-19T15:22:18;8.47;;;3.47;;
4963;SDS011;2497;47.410;9.740;2023-01-19T15:24:46;7.13;;;3.93;;
4963;SDS011;2497;47.410;9.740;2023-01-19T15:27:13;7.13;;;3.93;;
4963;SDS011;2497;47.410;9.740;2023-01-19T15:29:48;7.30;;;3.73;;
4963;SDS011;2497;47.410;9.740;2023-01-19T15:32:15;10.10;;;4.80;;
4963;SDS011;2497;47.410;9.740;2023-01-19T15:34:43;9.00;;;5.27;;
4963;SDS011;2497;47.410;9.740;2023-01-19T15:37:10;10.93;;;4.10;;
4963;SDS011;2497;47.410;9.740;2023-01-19T15:39:37;12.30;;;5.50;;
4963;SDS011;2497;47.410;9.740;2023-01-19T15:42:05;13.70;;;5.27;;
4963;SDS011;2497;47.410;9.740;2023-01-19T15:44:39;9.80;;;4.13;;
4963;SDS011;2497;47.410;9.740;2023-01-19T15:47:07;6.77;;;3.30;;
4963;SDS011;2497;47.410;9.740;2023-01-19T15:49:35;5.17;;;3.30;;
4963;SDS011;2497;47.410;9.740;2023-01-19T15:52:02;6.57;;;3.10;;